Time;durP1;ratioP1;P1;durP2;ratioP2;P2;SDS_P1;SDS_P2;PMS_P1;PMS_P2;Temp;Humidity;BMP_temperature;BMP_pressure;BME280_temperature;BME280_humidity;BME280_pressure;Samples;Min_cycle;Max_cycle;Signal;HPM_P1;HPM_P2
2022/02/23 00:02:38;;;;;;;13.30;6.70;;;;;;;0.72;73.59;96560.13;107722;1272;97861;-81
2022/02/23 00:05:26;;;;;;;14.10;6.50;;;;;;;0.73;73.36;96560.42;107805;1273;58452;-81
2022/02/23 00:07:59;;;;;;;14.80;6.00;;;;;;;0.73;73.02;96560.39;107776;1273;47041;-81
2022/02/23 00:10:31;;;;;;;17.80;7.30;;;;;;;0.73;73.45;96556.38;107786;1273;82296;-80
2022/02/23 00:13:02;;;;;;;16.70;6.50;;;;;;;0.71;73.27;96554.11;107855;1273;34120;-81
2022/02/23 00:15:37;;;;;;;15.70;6.60;;;;;;;0.69;73.41;96548.66;107791;1273;34115;-81
2022/02/23 00:18:12;;;;;;;18.60;8.30;;;;;;;0.67;73.65;96545.79;107415;1272;181925;-81
2022/02/23 00:20:44;;;;;;;17.10;6.40;;;;;;;0.66;73.50;96542.52;107670;1273;128893;-81
2022/02/23 00:23:18;;;;;;;14.80;6.40;;;;;;;0.65;73.59;96535.30;107667;1273;141864;-81
2022/02/23 00:25:49;;;;;;;17.70;7.10;;;;;;;0.64;73.48;96526.13;107823;1273;39287;-81
2022/02/23 00:28:20;;;;;;;18.40;7.20;;;;;;;0.62;73.97;96526.66;107865;1272;39693;-81
2022/02/23 00:30:52;;;;;;;16.20;6.80;;;;;;;0.62;73.78;96518.57;107715;1273;122070;-81
2022/02/23 00:33:26;;;;;;;13.30;5.80;;;;;;;0.60;73.92;96515.86;107812;1273;77522;-81
2022/02/23 00:35:57;;;;;;;12.90;6.30;;;;;;;0.59;73.99;96513.66;107839;1273;35060;-81
2022/02/23 00:38:28;;;;;;;13.90;6.20;;;;;;;0.58;73.96;96509.46;107595;1272;186626;-80
2022/02/23 00:40:59;;;;;;;16.40;6.80;;;;;;;0.58;73.97;96506.13;107751;1273;92144;-80
2022/02/23 00:43:31;;;;;;;17.70;5.80;;;;;;;0.58;73.75;96497.83;107459;1273;147279;-82
2022/02/23 00:46:05;;;;;;;12.30;5.90;;;;;;;0.58;73.82;96495.94;107702;1273;89576;-81
2022/02/23 00:48:37;;;;;;;16.40;6.50;;;;;;;0.58;73.72;96498.86;107806;1273;36986;-81
2022/02/23 00:51:08;;;;;;;13.90;6.10;;;;;;;0.59;73.77;96497.11;107703;1273;114030;-81
2022/02/23 00:53:39;;;;;;;12.00;5.20;;;;;;;0.59;73.41;96486.17;107852;1273;33600;-81
2022/02/23 00:56:11;;;;;;;16.60;6.00;;;;;;;0.60;73.50;96481.74;107764;1273;110339;-81
2022/02/23 00:58:45;;;;;;;16.90;5.50;;;;;;;0.59;73.62;96475.05;107647;1273;132877;-81
2022/02/23 01:01:17;;;;;;;13.30;5.10;;;;;;;0.59;73.52;96473.42;107521;1272;133199;-81
2022/02/23 01:03:48;;;;;;;13.30;4.90;;;;;;;0.60;73.27;96479.02;107726;1273;105114;-81
2022/02/23 01:06:20;;;;;;;14.30;5.00;;;;;;;0.60;73.14;96472.77;107713;1272;90310;-81
2022/02/23 01:08:51;;;;;;;11.30;4.20;;;;;;;0.57;73.00;96462.64;107773;1273;30550;-81
2022/02/23 01:11:22;;;;;;;10.20;4.40;;;;;;;0.58;72.63;96455.04;107634;1273;168081;-81
2022/02/23 01:13:54;;;;;;;10.70;3.90;;;;;;;0.60;72.41;96452.21;105944;1273;2607449;-81
2022/02/23 01:16:25;;;;;;;10.20;4.20;;;;;;;0.70;72.03;96453.05;106585;1273;1815341;-81
2022/02/23 01:18:56;;;;;;;11.20;4.10;;;;;;;0.79;71.98;96450.33;106883;1272;1274042;-81
2022/02/23 01:21:28;;;;;;;7.50;2.70;;;;;;;0.87;71.52;96446.02;107886;1273;33274;-81
2022/02/23 01:23:59;;;;;;;12.50;3.10;;;;;;;0.97;70.84;96447.31;107796;1273;85727;-80
2022/02/23 01:26:30;;;;;;;6.50;2.30;;;;;;;1.03;70.55;96446.89;107810;1273;35484;-81
2022/02/23 01:29:01;;;;;;;7.20;3.90;;;;;;;1.05;70.44;96450.64;107811;1272;36525;-80
2022/02/23 01:31:32;;;;;;;6.90;2.30;;;;;;;1.02;70.24;96441.55;107713;1273;132017;-80
2022/02/23 01:34:03;;;;;;;8.10;3.00;;;;;;;1.07;70.02;96436.59;107753;1273;98796;-81
2022/02/23 01:36:36;;;;;;;8.50;3.80;;;;;;;1.07;69.84;96432.89;107653;1273;93541;-80
2022/02/23 01:39:07;;;;;;;12.90;3.90;;;;;;;1.04;69.97;96429.89;107278;1273;39607;-80
2022/02/23 01:41:39;;;;;;;11.00;3.30;;;;;;;1.02;70.25;96424.27;106511;1273;1331604;-81
2022/02/23 01:44:09;;;;;;;9.80;3.10;;;;;;;1.02;70.11;96427.88;107576;1273;135203;-80
2022/02/23 01:46:40;;;;;;;4.60;2.20;;;;;;;1.03;69.92;96417.30;107612;1273;112782;-80
2022/02/23 01:49:12;;;;;;;7.80;3.30;;;;;;;1.06;69.93;96418.61;107561;1273;116824;-81
2022/02/23 01:51:43;;;;;;;6.50;2.80;;;;;;;1.07;69.71;96417.50;106329;1273;1995271;-81
2022/02/23 01:54:13;;;;;;;8.50;3.40;;;;;;;1.06;69.79;96412.30;106116;1273;1792609;-81
2022/02/23 01:56:44;;;;;;;9.40;3.50;;;;;;;1.09;69.94;96406.52;107593;1273;151006;-81
2022/02/23 01:59:15;;;;;;;8.40;2.80;;;;;;;1.11;69.99;96402.14;107633;1273;190952;-80
2022/02/23 02:01:46;;;;;;;11.00;3.70;;;;;;;1.12;69.66;96399.12;107620;1273;106052;-81
2022/02/23 02:04:21;;;;;;;5.80;2.00;;;;;;;1.13;69.66;96390.83;107765;1273;35973;-80
2022/02/23 02:06:53;;;;;;;7.00;3.00;;;;;;;1.17;69.32;96389.77;107180;1274;557644;-81
2022/02/23 02:09:23;;;;;;;10.20;3.60;;;;;;;1.18;69.47;96380.55;107858;1273;35517;-81
2022/02/23 02:11:54;;;;;;;5.00;2.40;;;;;;;1.20;69.07;96377.56;107726;1273;169961;-81
2022/02/23 02:14:26;;;;;;;8.30;2.70;;;;;;;1.28;68.77;96376.04;107753;1273;131313;-81
2022/02/23 02:16:57;;;;;;;7.00;2.40;;;;;;;1.34;68.27;96363.89;107685;1273;146338;-81
2022/02/23 02:19:28;;;;;;;7.10;3.50;;;;;;;1.33;68.50;96363.14;106966;1272;1173711;-82
2022/02/23 02:22:00;;;;;;;21.90;3.90;;;;;;;1.31;68.71;96365.98;107872;1272;74546;-81
2022/02/23 02:24:33;;;;;;;8.60;3.70;;;;;;;1.29;68.55;96376.59;107850;1273;70023;-82
2022/02/23 02:27:07;;;;;;;4.40;2.30;;;;;;;1.30;68.80;96375.25;106450;1273;1754234;-81
2022/02/23 02:29:40;;;;;;;9.90;3.90;;;;;;;1.32;68.73;96374.93;107748;1273;120263;-81
2022/02/23 02:32:14;;;;;;;6.20;2.10;;;;;;;1.33;68.42;96376.04;107892;1273;70154;-81
2022/02/23 02:34:46;;;;;;;10.80;2.60;;;;;;;1.36;68.25;96374.70;107775;1273;38655;-81
2022/02/23 02:37:17;;;;;;;7.80;3.00;;;;;;;1.35;68.59;96371.45;107797;1273;42702;-81
2022/02/23 02:39:48;;;;;;;7.60;2.90;;;;;;;1.36;68.58;96366.19;106748;1273;1405938;-81
2022/02/23 02:42:22;;;;;;;5.30;1.70;;;;;;;1.35;68.37;96371.45;107518;1273;170973;-82
2022/02/23 02:44:53;;;;;;;8.30;3.10;;;;;;;1.35;68.56;96367.06;107379;1273;144763;-82
2022/02/23 02:47:24;;;;;;;8.70;3.70;;;;;;;1.36;68.42;96364.77;107300;1273;147693;-81
2022/02/23 02:49:55;;;;;;;10.10;3.50;;;;;;;1.38;68.58;96353.69;107493;1273;136437;-81
2022/02/23 02:52:26;;;;;;;9.00;2.70;;;;;;;1.36;68.39;96349.02;107494;1273;142984;-81
2022/02/23 02:54:57;;;;;;;5.80;1.90;;;;;;;1.40;68.50;96350.82;107567;1274;88206;-81
2022/02/23 02:57:28;;;;;;;9.10;3.20;;;;;;;1.42;67.88;96349.05;107328;1273;171809;-81
2022/02/23 02:59:59;;;;;;;8.80;3.20;;;;;;;1.43;68.07;96349.71;107317;1273;171458;-81
2022/02/23 03:02:30;;;;;;;4.30;1.70;;;;;;;1.43;67.96;96348.91;107386;1275;184820;-81
2022/02/23 03:05:02;;;;;;;5.00;2.10;;;;;;;1.43;68.05;96343.13;107293;1273;143964;-81
2022/02/23 03:07:33;;;;;;;9.10;3.00;;;;;;;1.48;67.74;96338.46;107365;1274;128108;-81
2022/02/23 03:10:04;;;;;;;8.50;3.50;;;;;;;1.48;67.68;96336.65;107622;1273;113503;-81
2022/02/23 03:12:35;;;;;;;13.00;3.50;;;;;;;1.51;67.70;96342.91;107509;1273;186240;-81
2022/02/23 03:15:08;;;;;;;10.80;3.20;;;;;;;1.49;67.74;96335.26;106405;1273;1851713;-81
2022/02/23 03:17:39;;;;;;;7.60;2.20;;;;;;;1.47;67.80;96326.74;107750;1273;141727;-81
2022/02/23 03:20:12;;;;;;;10.70;3.20;;;;;;;1.47;67.92;96322.05;107493;1273;174615;-81
2022/02/23 03:22:43;;;;;;;10.30;3.00;;;;;;;1.46;67.83;96320.00;107538;1273;191827;-81
2022/02/23 03:25:14;;;;;;;7.30;2.40;;;;;;;1.46;67.87;96342.63;106682;1273;1351587;-81
2022/02/23 03:27:46;;;;;;;7.70;2.90;;;;;;;1.46;67.99;96355.10;107351;1273;91424;-81
2022/02/23 03:30:17;;;;;;;6.40;2.00;;;;;;;1.49;67.88;96360.95;107314;1273;102200;-81
2022/02/23 03:32:48;;;;;;;7.80;3.20;;;;;;;1.51;67.74;96371.52;106288;1273;2062052;-81
2022/02/23 03:35:20;;;;;;;6.90;2.60;;;;;;;1.55;67.84;96375.23;107524;1273;95842;-81
2022/02/23 03:37:51;;;;;;;8.70;3.40;;;;;;;1.52;67.93;96380.50;107668;1273;102715;-80
2022/02/23 03:40:23;;;;;;;8.40;2.70;;;;;;;1.48;68.02;96370.65;106250;1273;2063676;-81
2022/02/23 03:42:54;;;;;;;4.50;1.90;;;;;;;1.47;67.94;96372.36;106070;1273;2123362;-81
2022/02/23 03:45:26;;;;;;;12.00;3.40;;;;;;;1.51;68.26;96363.52;107703;1273;185073;-81
2022/02/23 03:47:58;;;;;;;10.20;3.50;;;;;;;1.50;68.05;96361.09;107751;1273;81653;-81
2022/02/23 03:50:29;;;;;;;7.60;2.70;;;;;;;1.51;68.19;96358.65;107639;1273;157466;-80
2022/02/23 03:53:00;;;;;;;7.60;2.20;;;;;;;1.60;68.39;96346.68;107469;1273;82956;-80
2022/02/23 03:55:31;;;;;;;8.50;3.50;;;;;;;1.71;68.38;96349.19;107652;1273;159631;-81
2022/02/23 03:58:02;;;;;;;7.40;2.60;;;;;;;1.70;68.35;96342.90;107817;1272;124327;-81
2022/02/23 04:00:33;;;;;;;7.60;2.40;;;;;;;1.67;68.37;96335.74;106369;1272;1757955;-81
2022/02/23 04:03:05;;;;;;;9.90;3.20;;;;;;;1.65;68.56;96332.98;107676;1273;100744;-81
2022/02/23 04:05:36;;;;;;;7.10;2.60;;;;;;;1.64;68.43;96321.89;107612;1273;155307;-81
2022/02/23 04:08:07;;;;;;;11.40;4.20;;;;;;;1.63;68.80;96326.54;107683;1273;110001;-81
2022/02/23 04:10:38;;;;;;;7.30;4.60;;;;;;;1.63;68.89;96343.41;107722;1273;92381;-80
2022/02/23 04:13:09;;;;;;;10.20;3.20;;;;;;;1.65;69.00;96347.82;107782;1273;61828;-80
2022/02/23 04:15:42;;;;;;;10.00;3.50;;;;;;;1.64;69.31;96346.04;107743;1273;109380;-81
2022/02/23 04:18:13;;;;;;;9.70;3.00;;;;;;;1.62;69.14;96344.85;107757;1273;80054;-81
2022/02/23 04:20:44;;;;;;;6.10;2.90;;;;;;;1.62;69.58;96341.23;107777;1273;43712;-81
2022/02/23 04:23:15;;;;;;;7.60;2.30;;;;;;;1.62;69.61;96343.23;107612;1274;150236;-81
2022/02/23 04:25:46;;;;;;;5.30;2.70;;;;;;;1.63;69.74;96342.25;107534;1273;132889;-81
2022/02/23 04:28:17;;;;;;;7.30;2.20;;;;;;;1.64;70.14;96344.73;107772;1273;42745;-81
2022/02/23 04:30:48;;;;;;;2.80;1.90;;;;;;;1.67;70.33;96333.92;107544;1273;32667;-81
2022/02/23 04:33:19;;;;;;;8.00;2.00;;;;;;;1.72;70.51;96334.63;107837;1273;29284;-81
2022/02/23 04:35:51;;;;;;;5.40;2.30;;;;;;;1.75;70.68;96345.30;107820;1273;53985;-81
2022/02/23 04:38:25;;;;;;;8.00;2.80;;;;;;;1.73;70.31;96346.83;106344;1273;1791739;-81
2022/02/23 04:40:56;;;;;;;10.00;3.10;;;;;;;1.73;70.66;96354.23;106697;1273;1526721;-81
2022/02/23 04:43:27;;;;;;;6.90;3.30;;;;;;;1.75;71.02;96353.23;107822;1272;104281;-81
2022/02/23 04:45:59;;;;;;;6.60;1.60;;;;;;;1.80;71.22;96355.46;106793;1273;1311587;-81
2022/02/23 04:48:30;;;;;;;8.60;3.00;;;;;;;1.81;71.39;96364.58;106047;1273;1889600;-81
2022/02/23 04:51:03;;;;;;;6.60;2.40;;;;;;;1.78;71.69;96369.48;107717;1273;91818;-80
2022/02/23 04:53:36;;;;;;;8.90;3.10;;;;;;;1.76;72.24;96374.15;106463;1273;1554993;-81
2022/02/23 04:56:08;;;;;;;5.60;2.70;;;;;;;1.73;72.80;96392.55;107845;1273;32942;-81
2022/02/23 04:58:39;;;;;;;4.10;1.70;;;;;;;1.68;73.54;96395.92;107726;1272;96211;-81
2022/02/23 05:01:10;;;;;;;7.60;2.80;;;;;;;1.62;74.78;96395.17;107684;1273;134517;-81
2022/02/23 05:03:41;;;;;;;7.10;3.00;;;;;;;1.56;75.72;96403.23;107526;1273;37030;-81
2022/02/23 05:06:12;;;;;;;6.80;3.00;;;;;;;1.48;75.97;96405.97;107399;1273;63198;-81
2022/02/23 05:08:43;;;;;;;8.00;2.70;;;;;;;1.42;76.65;96406.91;107700;1273;35007;-81
2022/02/23 05:11:14;;;;;;;4.80;2.60;;;;;;;1.33;77.61;96404.88;107547;1273;42986;-81
2022/02/23 05:13:51;;;;;;;6.90;3.10;;;;;;;1.26;78.49;96406.15;107594;1273;52143;-81
2022/02/23 05:16:23;;;;;;;7.80;3.20;;;;;;;1.19;78.54;96407.63;107590;1273;35300;-81
2022/02/23 05:18:54;;;;;;;11.00;2.80;;;;;;;1.15;79.41;96406.32;107604;1273;191110;-81
2022/02/23 05:21:24;;;;;;;7.30;2.80;;;;;;;1.14;79.77;96409.64;105931;1273;2026869;-81
2022/02/23 05:23:56;;;;;;;8.40;3.00;;;;;;;1.13;80.13;96422.09;107739;1273;101841;-82
2022/02/23 05:26:27;;;;;;;7.80;3.30;;;;;;;1.12;80.79;96419.11;107438;1273;32947;-82
2022/02/23 05:28:58;;;;;;;8.30;3.60;;;;;;;1.12;81.40;96426.91;106433;1273;1788999;-82
2022/02/23 05:31:30;;;;;;;7.40;2.70;;;;;;;1.11;81.68;96434.25;107226;1273;1545180;-81
2022/02/23 05:34:01;;;;;;;7.50;3.00;;;;;;;1.11;82.02;96435.35;104936;1273;3464494;-82
2022/02/23 05:36:33;;;;;;;10.10;3.30;;;;;;;1.10;82.57;96434.32;107650;1273;141689;-82
2022/02/23 05:39:07;;;;;;;9.10;4.00;;;;;;;1.11;83.34;96441.34;107549;1273;143928;-82
2022/02/23 05:41:39;;;;;;;8.80;3.60;;;;;;;1.12;83.27;96444.86;107415;1273;34625;-82
2022/02/23 05:44:13;;;;;;;10.20;3.70;;;;;;;1.10;83.51;96446.65;107390;1273;187547;-82
2022/02/23 05:46:44;;;;;;;11.40;3.30;;;;;;;1.10;84.46;96451.83;107348;1273;202999;-81
2022/02/23 05:49:16;;;;;;;6.10;3.10;;;;;;;1.09;84.45;96448.45;106107;1273;1809534;-82
2022/02/23 05:51:47;;;;;;;6.80;3.10;;;;;;;1.06;85.03;96457.09;106190;1272;1763993;-81
2022/02/23 05:54:19;;;;;;;4.90;2.70;;;;;;;1.05;84.99;96456.86;107316;1273;137973;-82
2022/02/23 05:56:51;;;;;;;6.50;3.00;;;;;;;1.05;85.52;96465.21;107731;1272;170142;-82
2022/02/23 05:59:22;;;;;;;9.30;3.40;;;;;;;1.06;85.65;96461.90;107619;1273;32259;-82
2022/02/23 06:01:54;;;;;;;8.10;2.70;;;;;;;1.06;85.56;96470.37;107557;1273;121716;-82
2022/02/23 06:04:25;;;;;;;6.30;3.30;;;;;;;1.08;85.74;96475.24;107640;1274;99006;-82
2022/02/23 06:06:56;;;;;;;7.00;2.60;;;;;;;1.05;85.74;96473.64;107527;1274;129737;-82
2022/02/23 06:09:31;;;;;;;7.30;3.10;;;;;;;1.04;86.05;96475.95;107541;1273;103735;-82
2022/02/23 06:12:05;;;;;;;5.70;3.00;;;;;;;1.03;86.56;96476.69;107303;1273;140496;-81
2022/02/23 06:14:37;;;;;;;4.50;2.70;;;;;;;1.00;86.84;96476.33;107317;1273;124525;-81
2022/02/23 06:17:08;;;;;;;5.90;2.70;;;;;;;0.99;87.51;96478.99;107231;1274;147187;-82
2022/02/23 06:19:39;;;;;;;4.30;2.40;;;;;;;0.99;87.45;96480.35;107414;1273;122227;-81
2022/02/23 06:22:10;;;;;;;5.00;2.00;;;;;;;1.02;88.20;96491.39;107335;1273;191713;-81
2022/02/23 06:24:41;;;;;;;6.60;2.80;;;;;;;1.07;88.30;96496.70;107314;1273;156766;-81
2022/02/23 06:27:16;;;;;;;3.90;2.00;;;;;;;1.10;88.09;96501.68;106042;1273;1786723;-81
2022/02/23 06:29:47;;;;;;;4.70;2.50;;;;;;;1.08;88.26;96498.54;107338;1273;135793;-81
2022/02/23 06:32:19;;;;;;;5.20;2.30;;;;;;;1.08;88.24;96502.73;107417;1273;118409;-81
2022/02/23 06:34:50;;;;;;;5.00;2.20;;;;;;;1.08;88.07;96504.39;107301;1273;127499;-82
2022/02/23 06:37:21;;;;;;;3.90;2.30;;;;;;;1.10;88.66;96502.01;107261;1273;231500;-82
2022/02/23 06:39:54;;;;;;;4.60;1.80;;;;;;;1.11;89.03;96506.68;107388;1273;133423;-82
2022/02/23 06:42:25;;;;;;;2.70;2.00;;;;;;;1.16;89.30;96507.40;106484;1273;1534209;-81
2022/02/23 06:44:57;;;;;;;4.40;2.30;;;;;;;1.21;89.49;96520.55;106112;1273;1876647;-81
2022/02/23 06:47:28;;;;;;;4.00;2.00;;;;;;;1.23;89.60;96524.42;107533;1273;109594;-82
2022/02/23 06:49:59;;;;;;;4.70;1.90;;;;;;;1.26;89.32;96534.30;107375;1273;154223;-81
2022/02/23 06:52:32;;;;;;;3.00;1.60;;;;;;;1.29;89.18;96534.73;107408;1273;120257;-81
2022/02/23 06:55:04;;;;;;;3.30;2.50;;;;;;;1.32;89.14;96541.70;107373;1273;150187;-81
2022/02/23 06:57:39;;;;;;;2.60;2.00;;;;;;;1.36;89.12;96554.90;105998;1273;2108731;-82
2022/02/23 07:00:13;;;;;;;2.20;1.50;;;;;;;1.38;89.57;96563.15;107355;1273;123557;-82
2022/02/23 07:02:44;;;;;;;2.30;1.30;;;;;;;1.44;89.64;96566.30;107291;1273;163366;-82
2022/02/23 07:05:16;;;;;;;2.30;1.40;;;;;;;1.53;89.47;96569.98;107501;1273;117004;-82
2022/02/23 07:07:47;;;;;;;2.00;0.90;;;;;;;1.63;89.61;96573.11;107436;1273;140423;-82
2022/02/23 07:10:24;;;;;;;1.00;0.90;;;;;;;1.74;89.87;96586.11;105806;1273;2168902;-82
2022/02/23 07:12:56;;;;;;;2.40;0.90;;;;;;;1.85;90.12;96597.09;107719;1273;97650;-82
2022/02/23 07:15:28;;;;;;;3.10;1.30;;;;;;;1.90;89.95;96598.73;107599;1273;99891;-82
2022/02/23 07:17:59;;;;;;;1.00;0.90;;;;;;;1.93;90.03;96607.59;107385;1273;117850;-81
2022/02/23 07:20:30;;;;;;;0.80;0.80;;;;;;;1.92;89.72;96613.42;107187;1275;186747;-81
2022/02/23 07:23:02;;;;;;;2.30;1.10;;;;;;;1.92;89.66;96614.57;107302;1273;166007;-82
2022/02/23 07:25:33;;;;;;;1.40;1.10;;;;;;;1.94;89.80;96622.89;107429;1273;176779;-81
2022/02/23 07:28:05;;;;;;;2.70;1.30;;;;;;;1.98;89.67;96627.03;107344;1273;191298;-81
2022/02/23 07:30:36;;;;;;;1.90;1.10;;;;;;;2.01;89.63;96637.45;106463;1273;1372894;-81
2022/02/23 07:33:07;;;;;;;3.20;1.90;;;;;;;2.04;89.68;96648.17;107377;1273;142712;-81
2022/02/23 07:35:38;;;;;;;2.20;1.30;;;;;;;2.10;89.74;96653.36;107393;1273;128480;-81
2022/02/23 07:38:10;;;;;;;3.10;1.50;;;;;;;2.19;89.80;96660.80;107379;1273;128927;-81
2022/02/23 07:40:41;;;;;;;4.40;2.20;;;;;;;2.26;89.60;96665.24;106254;1273;1603806;-82
2022/02/23 07:43:13;;;;;;;2.00;1.40;;;;;;;2.29;89.63;96675.30;107406;1273;135980;-81
2022/02/23 07:45:44;;;;;;;4.10;2.00;;;;;;;2.30;89.47;96676.41;107441;1273;119551;-81
2022/02/23 07:48:15;;;;;;;3.10;1.70;;;;;;;2.30;89.37;96675.96;106531;1273;1812315;-81
2022/02/23 07:50:46;;;;;;;4.40;1.30;;;;;;;2.30;89.22;96685.06;107725;1273;127872;-80
2022/02/23 07:53:17;;;;;;;7.40;2.10;;;;;;;2.30;89.42;96682.28;107451;1273;42928;-81
2022/02/23 07:55:48;;;;;;;3.80;1.90;;;;;;;2.32;89.35;96683.74;107833;1273;34728;-81
2022/02/23 07:58:19;;;;;;;6.30;2.60;;;;;;;2.35;89.06;96686.38;107648;1273;182690;-81
2022/02/23 08:00:50;;;;;;;4.10;2.40;;;;;;;2.38;89.02;96691.20;106018;1273;2113723;-81
2022/02/23 08:03:21;;;;;;;6.50;3.10;;;;;;;2.41;89.14;96694.16;106215;1273;2115595;-81
2022/02/23 08:05:53;;;;;;;7.70;2.90;;;;;;;2.42;88.93;96701.73;107547;1273;192006;-81
2022/02/23 08:08:24;;;;;;;7.10;3.00;;;;;;;2.42;88.78;96695.65;107809;1273;36087;-81
2022/02/23 08:10:54;;;;;;;17.40;5.00;;;;;;;2.43;88.68;96706.98;107682;1273;31638;-81
2022/02/23 08:13:25;;;;;;;6.70;2.90;;;;;;;2.44;88.62;96709.86;107512;1273;33066;-81
2022/02/23 08:21:33;;;;;;;6.80;2.70;;;;;;;2.50;88.72;96721.31;107805;1273;36970;-80
2022/02/23 08:24:05;;;;;;;6.10;3.10;;;;;;;2.53;88.90;96728.83;107535;1273;200865;-81
2022/02/23 08:26:42;;;;;;;8.10;3.50;;;;;;;2.54;88.85;96730.81;107880;1273;37561;-81
2022/02/23 08:29:13;;;;;;;9.40;2.90;;;;;;;2.54;88.84;96731.85;107483;1273;202899;-81
2022/02/23 08:31:44;;;;;;;7.80;2.90;;;;;;;2.58;88.47;96742.33;106714;1273;1512669;-81
2022/02/23 08:34:15;;;;;;;10.10;3.10;;;;;;;2.61;88.17;96756.98;107669;1273;163385;-81
2022/02/23 08:36:47;;;;;;;10.20;2.90;;;;;;;2.63;87.95;96763.11;107594;1274;36365;-81
2022/02/23 08:39:18;;;;;;;13.40;3.80;;;;;;;2.66;87.31;96766.48;107799;1273;98765;-81
2022/02/23 08:41:50;;;;;;;6.30;2.30;;;;;;;2.68;86.59;96760.88;106738;1274;1317067;-79
2022/02/23 08:44:21;;;;;;;4.00;2.40;;;;;;;2.71;85.60;96763.10;107810;1273;39051;-80
2022/02/23 08:46:52;;;;;;;6.00;2.60;;;;;;;2.72;85.38;96782.77;106457;1274;1839078;-81
2022/02/23 08:49:23;;;;;;;9.60;3.10;;;;;;;2.76;85.07;96777.70;107488;1275;144144;-81
2022/02/23 08:51:54;;;;;;;6.70;2.70;;;;;;;2.82;84.68;96775.61;105863;1274;2386129;-80
2022/02/23 08:54:26;;;;;;;8.90;3.10;;;;;;;2.85;83.76;96787.06;106766;1275;1492891;-81
2022/02/23 08:56:57;;;;;;;7.20;3.20;;;;;;;2.86;82.22;96804.46;107649;1275;173366;-82
2022/02/23 08:59:28;;;;;;;6.90;2.60;;;;;;;2.86;81.27;96812.69;107669;1275;200286;-81
2022/02/23 09:01:59;;;;;;;7.60;2.90;;;;;;;2.89;81.36;96810.20;106565;1274;1756656;-80
2022/02/23 09:04:31;;;;;;;11.80;3.00;;;;;;;2.95;81.48;96819.98;107491;1273;171340;-81
2022/02/23 09:07:02;;;;;;;6.90;2.50;;;;;;;3.06;80.62;96829.27;106482;1274;1714206;-80
2022/02/23 09:09:33;;;;;;;12.10;3.50;;;;;;;3.15;80.49;96830.55;107686;1274;75675;-80
2022/02/23 09:12:05;;;;;;;5.00;2.40;;;;;;;3.17;80.13;96823.02;107595;1274;157091;-81
2022/02/23 09:14:38;;;;;;;10.10;3.60;;;;;;;3.14;79.86;96823.23;106117;1274;2069601;-81
2022/02/23 09:17:10;;;;;;;13.40;2.70;;;;;;;3.11;80.02;96825.15;107583;1274;155054;-81
2022/02/23 09:19:41;;;;;;;9.20;3.10;;;;;;;3.12;79.84;96828.42;107600;1274;143679;-80
2022/02/23 09:22:12;;;;;;;17.00;3.50;;;;;;;3.14;79.65;96839.27;107748;1274;96077;-81
2022/02/23 09:24:42;;;;;;;5.80;3.20;;;;;;;3.16;79.64;96835.16;107708;1274;113065;-81
2022/02/23 09:27:16;;;;;;;7.50;2.50;;;;;;;3.20;78.99;96832.67;107774;1274;66342;-80
2022/02/23 09:29:46;;;;;;;7.90;3.10;;;;;;;3.31;79.04;96847.01;107734;1274;81669;-81
2022/02/23 09:32:17;;;;;;;10.70;3.50;;;;;;;3.39;78.89;96838.70;107826;1274;50474;-81
2022/02/23 09:34:49;;;;;;;9.10;3.40;;;;;;;3.37;78.62;96835.54;107768;1274;31911;-81
2022/02/23 09:37:20;;;;;;;9.50;3.00;;;;;;;3.39;78.36;96833.02;107805;1274;34664;-81
2022/02/23 09:39:51;;;;;;;9.50;3.30;;;;;;;3.40;77.77;96821.55;107660;1274;107098;-81
2022/02/23 09:42:26;;;;;;;5.90;2.80;;;;;;;3.40;77.75;96839.63;107663;1274;105849;-81
2022/02/23 09:45:00;;;;;;;9.00;2.80;;;;;;;3.40;77.77;96837.20;107787;1274;159701;-81
2022/02/23 09:47:32;;;;;;;13.20;2.80;;;;;;;3.36;78.05;96837.14;107726;1274;133108;-81
2022/02/23 09:50:05;;;;;;;8.40;3.00;;;;;;;3.26;78.53;96853.58;107687;1274;70375;-81
2022/02/23 09:52:37;;;;;;;5.60;2.00;;;;;;;3.11;79.41;96860.98;107468;1275;156663;-81
2022/02/23 09:55:09;;;;;;;7.00;1.70;;;;;;;2.94;80.52;96867.58;107824;1273;46243;-82
2022/02/23 09:57:40;;;;;;;5.00;2.10;;;;;;;2.81;81.69;96866.64;107728;1274;104449;-82
2022/02/23 10:00:13;;;;;;;3.50;1.90;;;;;;;2.76;82.31;96866.79;107756;1274;58141;-81
2022/02/23 10:02:44;;;;;;;3.90;1.90;;;;;;;2.69;82.79;96871.41;107672;1274;121870;-80
2022/02/23 10:05:17;;;;;;;6.70;2.00;;;;;;;2.61;83.38;96879.63;107677;1274;104153;-79
2022/02/23 10:07:48;;;;;;;6.30;2.10;;;;;;;2.44;83.99;96893.80;107403;1274;138221;-79
2022/02/23 10:10:35;;;;;;;5.30;1.60;;;;;;;2.28;84.66;96892.46;107350;1275;60590;-80
2022/02/23 10:13:07;;;;;;;2.70;1.40;;;;;;;2.01;85.46;96894.39;107347;1274;61102;-79
2022/02/23 10:15:43;;;;;;;3.30;1.40;;;;;;;1.92;85.72;96887.56;107681;1274;95102;-80
2022/02/23 10:18:17;;;;;;;4.80;1.30;;;;;;;2.08;86.13;96891.17;107780;1274;37102;-81
2022/02/23 10:20:51;;;;;;;13.60;3.40;;;;;;;2.15;86.39;96889.84;107782;1274;106494;-81
2022/02/23 10:23:25;;;;;;;10.40;3.30;;;;;;;2.25;86.45;96896.11;107549;1274;120629;-82
2022/02/23 10:25:58;;;;;;;12.30;3.80;;;;;;;2.53;86.69;96888.46;107934;1274;40408;-81
2022/02/23 10:28:34;;;;;;;14.00;5.00;;;;;;;2.75;86.51;96876.11;107389;1274;1346957;-81
2022/02/23 10:31:09;;;;;;;14.40;4.40;;;;;;;2.95;86.04;96890.90;107869;1274;36679;-81
2022/02/23 10:33:43;;;;;;;10.00;3.00;;;;;;;3.15;85.37;96882.23;107788;1274;37312;-80
2022/02/23 10:36:16;;;;;;;7.60;3.00;;;;;;;3.19;83.70;96884.23;107592;1272;124888;-81
2022/02/23 10:38:51;;;;;;;6.80;2.50;;;;;;;3.38;83.80;96886.46;107686;1274;100564;-81
2022/02/23 10:41:30;;;;;;;10.10;2.70;;;;;;;3.51;82.76;96873.58;106400;1274;2013963;-81
2022/02/23 10:44:04;;;;;;;12.80;3.60;;;;;;;3.67;81.47;96878.19;107579;1274;116422;-81
2022/02/23 10:46:38;;;;;;;6.20;2.20;;;;;;;3.80;80.62;96873.30;107758;1274;39027;-81
2022/02/23 10:49:10;;;;;;;7.10;2.20;;;;;;;3.87;78.52;96867.48;107729;1274;138124;-81
2022/02/23 10:51:45;;;;;;;10.90;3.30;;;;;;;4.16;77.67;96883.50;106712;1274;1487758;-82
2022/02/23 10:54:16;;;;;;;10.10;3.20;;;;;;;4.34;76.56;96876.63;107783;1273;74331;-82
2022/02/23 10:56:47;;;;;;;5.50;1.80;;;;;;;4.54;75.90;96874.89;106879;1274;1231346;-82
2022/02/23 10:59:22;;;;;;;5.20;2.40;;;;;;;4.65;74.41;96871.91;106491;1274;1761146;-82
2022/02/23 11:01:54;;;;;;;9.60;3.50;;;;;;;4.56;73.98;96874.14;107728;1274;69478;-82
2022/02/23 11:04:25;;;;;;;8.10;3.20;;;;;;;4.53;74.42;96893.25;107701;1274;143262;-81
2022/02/23 11:06:56;;;;;;;5.70;2.20;;;;;;;4.87;75.65;96889.96;105982;1274;2261816;-81
2022/02/23 11:09:29;;;;;;;6.40;2.20;;;;;;;5.13;74.61;96894.70;107785;1274;112565;-81
2022/02/23 11:12:03;;;;;;;6.40;2.20;;;;;;;5.19;73.47;96887.50;107400;1273;135367;-82
2022/02/23 11:14:35;;;;;;;7.80;2.60;;;;;;;5.21;71.33;96881.06;107429;1273;144401;-81
2022/02/23 11:17:08;;;;;;;5.90;2.40;;;;;;;5.05;70.85;96889.77;107515;1274;126542;-82
2022/02/23 11:19:43;;;;;;;12.10;2.70;;;;;;;4.93;70.46;96895.86;107416;1274;126248;-81
2022/02/23 11:22:14;;;;;;;6.00;2.60;;;;;;;4.78;70.04;96889.23;107475;1274;91820;-83
2022/02/23 11:24:47;;;;;;;5.90;2.30;;;;;;;4.63;68.53;96894.50;107573;1273;130860;-82
2022/02/23 11:27:23;;;;;;;7.90;2.70;;;;;;;4.49;68.24;96901.90;107489;1273;124013;-80
2022/02/23 11:30:06;;;;;;;7.30;2.80;;;;;;;4.41;68.27;96910.86;107867;1274;37943;-80
2022/02/23 11:32:42;;;;;;;8.60;2.30;;;;;;;4.40;68.85;96906.08;107746;1273;122581;-80
2022/02/23 11:35:19;;;;;;;14.30;4.10;;;;;;;4.57;68.62;96896.38;106547;1271;1645077;-81
2022/02/23 11:37:58;;;;;;;8.70;2.80;;;;;;;4.70;68.96;96888.39;107702;1273;126206;-82
2022/02/23 11:40:29;;;;;;;10.50;3.20;;;;;;;4.82;69.47;96890.13;107793;1273;136689;-80
2022/02/23 11:43:29;;;;;;;5.50;2.00;;;;;;;4.83;68.62;96895.84;106083;1274;1789455;-80
2022/02/23 11:46:05;;;;;;;6.10;2.60;;;;;;;4.62;67.98;96930.20;107618;1273;199741;-80
2022/02/23 11:48:49;;;;;;;12.00;3.40;;;;;;;4.41;68.31;96912.76;107799;1273;35298;-81
2022/02/23 11:51:36;;;;;;;7.20;1.80;;;;;;;4.25;68.88;96918.03;107610;1273;127860;-81
2022/02/23 11:54:09;;;;;;;8.60;2.60;;;;;;;4.29;69.07;96915.85;107836;1273;45794;-83